sensor_id;sensor_type;location;lat;lon;timestamp;pressure;altitude;pressure_sealevel;temperature;humidity
76108;BME280;64834;52.516;10.528;2024-01-11T00:01:09;102586.44;;;-8.18;100.00
76108;BME280;64834;52.516;10.528;2024-01-11T00:03:35;102589.69;;;-8.19;100.00
76108;BME280;64834;52.516;10.528;2024-01-11T00:06:01;102581.81;;;-8.20;100.00
76108;BME280;64834;52.516;10.528;2024-01-11T00:08:26;102574.91;;;-8.21;100.00
76108;BME280;64834;52.516;10.528;2024-01-11T00:10:51;102582.28;;;-8.23;100.00
76108;BME280;64834;52.516;10.528;2024-01-11T00:13:17;102586.91;;;-8.20;100.00
76108;BME280;64834;52.516;10.528;2024-01-11T00:15:42;102591.50;;;-8.23;100.00
76108;BME280;64834;52.516;10.528;2024-01-11T00:18:07;102609.47;;;-8.27;100.00
76108;BME280;64834;52.516;10.528;2024-01-11T00:20:33;102610.78;;;-8.35;100.00
76108;BME280;64834;52.516;10.528;2024-01-11T00:22:58;102596.78;;;-8.27;100.00
76108;BME280;64834;52.516;10.528;2024-01-11T00:25:23;102597.19;;;-8.30;100.00
76108;BME280;64834;52.516;10.528;2024-01-11T00:27:49;102591.69;;;-8.27;100.00
76108;BME280;64834;52.516;10.528;2024-01-11T00:30:14;102589.16;;;-8.27;100.00
76108;BME280;64834;52.516;10.528;2024-01-11T00:32:39;102594.19;;;-8.33;100.00
76108;BME280;64834;52.516;10.528;2024-01-11T00:35:05;102591.63;;;-8.38;100.00
76108;BME280;64834;52.516;10.528;2024-01-11T00:37:31;102584.25;;;-8.31;100.00
76108;BME280;64834;52.516;10.528;2024-01-11T00:39:56;102572.69;;;-8.40;100.00
76108;BME280;64834;52.516;10.528;2024-01-11T00:42:21;102576.63;;;-8.37;100.00
76108;BME280;64834;52.516;10.528;2024-01-11T00:44:47;102562.31;;;-8.36;100.00
76108;BME280;64834;52.516;10.528;2024-01-11T00:47:12;102552.88;;;-8.32;100.00
76108;BME280;64834;52.516;10.528;2024-01-11T00:49:37;102546.16;;;-8.37;100.00
76108;BME280;64834;52.516;10.528;2024-01-11T00:52:03;102557.94;;;-8.37;100.00
76108;BME280;64834;52.516;10.528;2024-01-11T00:54:28;102561.56;;;-8.47;100.00
76108;BME280;64834;52.516;10.528;2024-01-11T00:56:54;102558.06;;;-8.53;100.00
76108;BME280;64834;52.516;10.528;2024-01-11T00:59:19;102557.59;;;-8.50;100.00
76108;BME280;64834;52.516;10.528;2024-01-11T01:01:50;102553.97;;;-8.47;100.00
76108;BME280;64834;52.516;10.528;2024-01-11T01:04:16;102560.44;;;-8.43;100.00
76108;BME280;64834;52.516;10.528;2024-01-11T01:06:41;102566.25;;;-8.38;100.00
76108;BME280;64834;52.516;10.528;2024-01-11T01:09:07;102563.25;;;-8.36;100.00
76108;BME280;64834;52.516;10.528;2024-01-11T01:11:32;102564.88;;;-8.36;100.00
76108;BME280;64834;52.516;10.528;2024-01-11T01:13:58;102563.25;;;-8.41;100.00
76108;BME280;64834;52.516;10.528;2024-01-11T01:16:23;102565.78;;;-8.36;100.00
76108;BME280;64834;52.516;10.528;2024-01-11T01:18:48;102558.81;;;-8.43;100.00
76108;BME280;64834;52.516;10.528;2024-01-11T01:21:14;102564.28;;;-8.51;99.95
76108;BME280;64834;52.516;10.528;2024-01-11T01:23:39;102558.22;;;-8.57;99.64
76108;BME280;64834;52.516;10.528;2024-01-11T01:26:04;102564.88;;;-8.63;99.63
76108;BME280;64834;52.516;10.528;2024-01-11T01:28:29;102556.56;;;-8.62;100.00
76108;BME280;64834;52.516;10.528;2024-01-11T01:30:55;102559.78;;;-8.63;99.87
76108;BME280;64834;52.516;10.528;2024-01-11T01:33:20;102561.00;;;-8.55;100.00
76108;BME280;64834;52.516;10.528;2024-01-11T01:35:45;102548.59;;;-8.75;98.07
76108;BME280;64834;52.516;10.528;2024-01-11T01:38:11;102551.75;;;-8.60;98.41
76108;BME280;64834;52.516;10.528;2024-01-11T01:40:37;102537.41;;;-8.65;97.72
76108;BME280;64834;52.516;10.528;2024-01-11T01:43:06;102538.09;;;-8.66;97.84
76108;BME280;64834;52.516;10.528;2024-01-11T01:45:32;102535.09;;;-8.64;97.93
76108;BME280;64834;52.516;10.528;2024-01-11T01:47:57;102535.00;;;-8.75;96.88
76108;BME280;64834;52.516;10.528;2024-01-11T01:50:23;102543.88;;;-8.88;96.59
76108;BME280;64834;52.516;10.528;2024-01-11T01:52:48;102540.22;;;-8.85;97.72
76108;BME280;64834;52.516;10.528;2024-01-11T01:55:14;102549.16;;;-8.87;97.65
76108;BME280;64834;52.516;10.528;2024-01-11T01:57:41;102535.03;;;-8.96;98.15
76108;BME280;64834;52.516;10.528;2024-01-11T02:00:11;102529.97;;;-8.96;98.36
76108;BME280;64834;52.516;10.528;2024-01-11T02:02:39;102536.13;;;-9.00;98.00
76108;BME280;64834;52.516;10.528;2024-01-11T02:05:05;102530.94;;;-8.90;98.65
76108;BME280;64834;52.516;10.528;2024-01-11T02:07:31;102535.28;;;-8.68;97.74
76108;BME280;64834;52.516;10.528;2024-01-11T02:09:57;102530.13;;;-8.79;95.75
76108;BME280;64834;52.516;10.528;2024-01-11T02:12:23;102526.75;;;-8.68;95.53
76108;BME280;64834;52.516;10.528;2024-01-11T02:14:49;102526.34;;;-8.87;94.71
76108;BME280;64834;52.516;10.528;2024-01-11T02:17:15;102518.59;;;-9.04;95.67
76108;BME280;64834;52.516;10.528;2024-01-11T02:19:40;102519.63;;;-8.92;96.03
76108;BME280;64834;52.516;10.528;2024-01-11T02:22:12;102515.66;;;-8.95;95.77
76108;BME280;64834;52.516;10.528;2024-01-11T02:24:40;102527.38;;;-9.02;96.50
76108;BME280;64834;52.516;10.528;2024-01-11T02:27:05;102529.84;;;-9.07;96.81
76108;BME280;64834;52.516;10.528;2024-01-11T02:29:31;102527.44;;;-9.17;96.42
76108;BME280;64834;52.516;10.528;2024-01-11T02:31:57;102514.16;;;-9.10;97.13
76108;BME280;64834;52.516;10.528;2024-01-11T02:34:24;102514.78;;;-9.17;97.02
76108;BME280;64834;52.516;10.528;2024-01-11T02:36:49;102513.56;;;-9.19;97.24
76108;BME280;64834;52.516;10.528;2024-01-11T02:39:16;102513.31;;;-9.20;97.37
76108;BME280;64834;52.516;10.528;2024-01-11T02:41:43;102515.94;;;-9.15;97.09
76108;BME280;64834;52.516;10.528;2024-01-11T02:44:09;102511.78;;;-9.14;96.93
76108;BME280;64834;52.516;10.528;2024-01-11T02:46:34;102517.47;;;-9.21;96.54
76108;BME280;64834;52.516;10.528;2024-01-11T02:49:00;102521.94;;;-9.14;97.03
76108;BME280;64834;52.516;10.528;2024-01-11T02:51:25;102523.09;;;-9.33;96.40
76108;BME280;64834;52.516;10.528;2024-01-11T02:53:50;102524.03;;;-9.33;96.87
76108;BME280;64834;52.516;10.528;2024-01-11T02:56:15;102526.00;;;-9.20;97.72
76108;BME280;64834;52.516;10.528;2024-01-11T02:58:41;102521.78;;;-9.26;97.06
76108;BME280;64834;52.516;10.528;2024-01-11T03:01:06;102533.16;;;-9.18;96.94
76108;BME280;64834;52.516;10.528;2024-01-11T03:03:32;102530.78;;;-9.28;96.76
76108;BME280;64834;52.516;10.528;2024-01-11T03:05:57;102530.78;;;-9.28;96.69
76108;BME280;64834;52.516;10.528;2024-01-11T03:08:23;102543.84;;;-9.30;96.83
76108;BME280;64834;52.516;10.528;2024-01-11T03:10:48;102548.91;;;-9.30;96.75
76108;BME280;64834;52.516;10.528;2024-01-11T03:13:13;102546.88;;;-9.48;96.77
76108;BME280;64834;52.516;10.528;2024-01-11T03:15:38;102549.34;;;-9.54;96.83
76108;BME280;64834;52.516;10.528;2024-01-11T03:18:04;102547.81;;;-9.47;97.61
76108;BME280;64834;52.516;10.528;2024-01-11T03:20:29;102532.16;;;-9.45;97.87
76108;BME280;64834;52.516;10.528;2024-01-11T03:22:55;102549.97;;;-9.39;97.85
76108;BME280;64834;52.516;10.528;2024-01-11T03:25:20;102556.50;;;-9.36;97.81
76108;BME280;64834;52.516;10.528;2024-01-11T03:27:46;102543.91;;;-9.25;97.39
76108;BME280;64834;52.516;10.528;2024-01-11T03:30:12;102540.09;;;-9.38;96.01
76108;BME280;64834;52.516;10.528;2024-01-11T03:32:37;102530.75;;;-9.48;94.84
76108;BME280;64834;52.516;10.528;2024-01-11T03:35:07;102523.19;;;-9.64;95.12
76108;BME280;64834;52.516;10.528;2024-01-11T03:37:32;102513.91;;;-9.69;95.75
76108;BME280;64834;52.516;10.528;2024-01-11T03:39:59;102535.28;;;-9.72;96.59
76108;BME280;64834;52.516;10.528;2024-01-11T03:42:24;102545.94;;;-9.85;96.59
76108;BME280;64834;52.516;10.528;2024-01-11T03:44:49;102561.41;;;-9.98;96.76
76108;BME280;64834;52.516;10.528;2024-01-11T03:47:15;102543.69;;;-9.98;97.58
76108;BME280;64834;52.516;10.528;2024-01-11T03:49:40;102543.56;;;-9.89;97.93
76108;BME280;64834;52.516;10.528;2024-01-11T03:52:05;102552.59;;;-9.85;97.54
76108;BME280;64834;52.516;10.528;2024-01-11T03:54:31;102565.50;;;-9.84;98.51
76108;BME280;64834;52.516;10.528;2024-01-11T03:56:56;102572.94;;;-9.80;98.32
76108;BME280;64834;52.516;10.528;2024-01-11T03:59:22;102563.47;;;-9.81;98.63
76108;BME280;64834;52.516;10.528;2024-01-11T04:01:47;102560.59;;;-9.72;99.01
76108;BME280;64834;52.516;10.528;2024-01-11T04:04:12;102555.34;;;-9.68;99.15
76108;BME280;64834;52.516;10.528;2024-01-11T04:06:38;102526.41;;;-9.65;98.70
76108;BME280;64834;52.516;10.528;2024-01-11T04:09:03;102529.63;;;-9.66;98.18
76108;BME280;64834;52.516;10.528;2024-01-11T04:11:29;102518.19;;;-9.58;98.24
76108;BME280;64834;52.516;10.528;2024-01-11T04:13:54;102520.41;;;-9.44;98.07
76108;BME280;64834;52.516;10.528;2024-01-11T04:16:20;102519.63;;;-9.34;96.92
76108;BME280;64834;52.516;10.528;2024-01-11T04:18:45;102544.16;;;-9.44;95.83
76108;BME280;64834;52.516;10.528;2024-01-11T04:21:22;102532.16;;;-9.66;96.17
76108;BME280;64834;52.516;10.528;2024-01-11T04:23:47;102532.56;;;-9.68;96.44
76108;BME280;64834;52.516;10.528;2024-01-11T04:26:12;102528.75;;;-9.61;96.90
76108;BME280;64834;52.516;10.528;2024-01-11T04:28:38;102522.81;;;-9.56;96.96
76108;BME280;64834;52.516;10.528;2024-01-11T04:31:03;102522.31;;;-9.59;96.60
76108;BME280;64834;52.516;10.528;2024-01-11T04:33:29;102529.50;;;-9.56;96.59
76108;BME280;64834;52.516;10.528;2024-01-11T04:35:54;102533.63;;;-9.57;96.52
76108;BME280;64834;52.516;10.528;2024-01-11T04:38:19;102531.09;;;-9.57;96.72
76108;BME280;64834;52.516;10.528;2024-01-11T04:40:44;102531.28;;;-9.61;96.13
76108;BME280;64834;52.516;10.528;2024-01-11T04:43:10;102536.44;;;-9.34;96.45
76108;BME280;64834;52.516;10.528;2024-01-11T04:45:35;102542.06;;;-9.26;95.53
76108;BME280;64834;52.516;10.528;2024-01-11T04:48:00;102547.72;;;-9.17;95.16
76108;BME280;64834;52.516;10.528;2024-01-11T04:50:26;102546.28;;;-9.20;94.48
76108;BME280;64834;52.516;10.528;2024-01-11T04:52:51;102563.09;;;-9.21;94.37
76108;BME280;64834;52.516;10.528;2024-01-11T04:55:16;102561.34;;;-9.32;94.46
76108;BME280;64834;52.516;10.528;2024-01-11T04:57:42;102558.41;;;-9.29;97.07
76108;BME280;64834;52.516;10.528;2024-01-11T05:00:07;102552.09;;;-9.16;97.69
76108;BME280;64834;52.516;10.528;2024-01-11T05:02:33;102545.66;;;-9.14;98.78
76108;BME280;64834;52.516;10.528;2024-01-11T05:04:58;102549.63;;;-9.10;98.06
76108;BME280;64834;52.516;10.528;2024-01-11T05:07:23;102547.09;;;-9.10;97.47
76108;BME280;64834;52.516;10.528;2024-01-11T05:09:48;102538.13;;;-9.08;97.00
76108;BME280;64834;52.516;10.528;2024-01-11T05:12:14;102539.84;;;-9.18;95.85
76108;BME280;64834;52.516;10.528;2024-01-11T05:14:39;102543.19;;;-9.08;96.59
76108;BME280;64834;52.516;10.528;2024-01-11T05:17:04;102529.22;;;-8.80;98.81
76108;BME280;64834;52.516;10.528;2024-01-11T05:19:30;102527.53;;;-8.85;97.43
76108;BME280;64834;52.516;10.528;2024-01-11T05:21:55;102531.81;;;-8.68;98.83
76108;BME280;64834;52.516;10.528;2024-01-11T05:24:21;102520.00;;;-8.53;99.88
76108;BME280;64834;52.516;10.528;2024-01-11T05:26:47;102500.44;;;-8.43;99.71
76108;BME280;64834;52.516;10.528;2024-01-11T05:29:12;102522.47;;;-8.26;98.00
76108;BME280;64834;52.516;10.528;2024-01-11T05:31:37;102537.94;;;-8.57;95.73
76108;BME280;64834;52.516;10.528;2024-01-11T05:34:03;102518.66;;;-8.45;95.49
76108;BME280;64834;52.516;10.528;2024-01-11T05:36:28;102520.09;;;-8.41;94.76
76108;BME280;64834;52.516;10.528;2024-01-11T05:38:53;102503.72;;;-8.38;94.54
76108;BME280;64834;52.516;10.528;2024-01-11T05:41:19;102487.00;;;-8.53;93.38
76108;BME280;64834;52.516;10.528;2024-01-11T05:43:44;102503.38;;;-8.51;93.90
76108;BME280;64834;52.516;10.528;2024-01-11T05:46:09;102511.50;;;-8.48;93.52
76108;BME280;64834;52.516;10.528;2024-01-11T05:48:35;102514.47;;;-8.50;92.50
76108;BME280;64834;52.516;10.528;2024-01-11T05:51:00;102511.44;;;-8.53;92.01
76108;BME280;64834;52.516;10.528;2024-01-11T05:53:25;102515.84;;;-8.52;92.14
76108;BME280;64834;52.516;10.528;2024-01-11T05:55:52;102507.59;;;-8.46;92.67
76108;BME280;64834;52.516;10.528;2024-01-11T05:58:18;102496.66;;;-8.56;91.74
76108;BME280;64834;52.516;10.528;2024-01-11T06:00:43;102494.63;;;-8.74;91.76
76108;BME280;64834;52.516;10.528;2024-01-11T06:03:08;102494.69;;;-8.68;91.80
76108;BME280;64834;52.516;10.528;2024-01-11T06:05:34;102486.16;;;-8.68;92.29
76108;BME280;64834;52.516;10.528;2024-01-11T06:07:59;102502.06;;;-8.96;92.81
76108;BME280;64834;52.516;10.528;2024-01-11T06:10:24;102504.31;;;-8.77;92.94
76108;BME280;64834;52.516;10.528;2024-01-11T06:12:50;102500.69;;;-8.73;92.61
76108;BME280;64834;52.516;10.528;2024-01-11T06:15:15;102499.69;;;-8.79;92.69
76108;BME280;64834;52.516;10.528;2024-01-11T06:17:40;102498.78;;;-8.74;92.34
76108;BME280;64834;52.516;10.528;2024-01-11T06:20:06;102497.16;;;-8.79;92.13
76108;BME280;64834;52.516;10.528;2024-01-11T06:22:32;102501.38;;;-8.95;92.00
76108;BME280;64834;52.516;10.528;2024-01-11T06:24:57;102518.09;;;-8.86;92.53
76108;BME280;64834;52.516;10.528;2024-01-11T06:27:24;102519.28;;;-9.05;92.26
76108;BME280;64834;52.516;10.528;2024-01-11T06:29:50;102512.22;;;-9.17;93.39
76108;BME280;64834;52.516;10.528;2024-01-11T06:32:15;102502.56;;;-9.14;94.06
76108;BME280;64834;52.516;10.528;2024-01-11T06:34:40;102506.41;;;-9.21;94.10
76108;BME280;64834;52.516;10.528;2024-01-11T06:37:10;102523.31;;;-9.16;94.21
76108;BME280;64834;52.516;10.528;2024-01-11T06:39:36;102521.25;;;-9.34;94.47
76108;BME280;64834;52.516;10.528;2024-01-11T06:42:01;102529.63;;;-9.24;95.08
76108;BME280;64834;52.516;10.528;2024-01-11T06:44:26;102547.28;;;-9.35;95.38
76108;BME280;64834;52.516;10.528;2024-01-11T06:46:52;102542.28;;;-9.30;95.83
76108;BME280;64834;52.516;10.528;2024-01-11T06:49:17;102538.19;;;-9.23;95.52
76108;BME280;64834;52.516;10.528;2024-01-11T06:51:42;102551.28;;;-9.26;95.64
76108;BME280;64834;52.516;10.528;2024-01-11T06:54:08;102554.00;;;-9.30;95.90
76108;BME280;64834;52.516;10.528;2024-01-11T06:56:33;102563.28;;;-9.25;96.03
76108;BME280;64834;52.516;10.528;2024-01-11T06:58:59;102560.06;;;-9.24;95.69
76108;BME280;64834;52.516;10.528;2024-01-11T07:01:24;102558.91;;;-9.26;95.57
76108;BME280;64834;52.516;10.528;2024-01-11T07:03:49;102567.94;;;-9.22;95.22
76108;BME280;64834;52.516;10.528;2024-01-11T07:06:17;102558.28;;;-9.19;95.27
76108;BME280;64834;52.516;10.528;2024-01-11T07:08:43;102549.50;;;-9.21;95.17
76108;BME280;64834;52.516;10.528;2024-01-11T07:11:08;102547.72;;;-9.17;95.43
76108;BME280;64834;52.516;10.528;2024-01-11T07:13:33;102549.06;;;-9.19;94.96
76108;BME280;64834;52.516;10.528;2024-01-11T07:15:59;102557.34;;;-9.20;94.84
76108;BME280;64834;52.516;10.528;2024-01-11T07:18:27;102581.22;;;-9.29;94.47
76108;BME280;64834;52.516;10.528;2024-01-11T07:20:53;102589.53;;;-9.25;94.82
76108;BME280;64834;52.516;10.528;2024-01-11T07:23:21;102581.53;;;-9.22;95.08
76108;BME280;64834;52.516;10.528;2024-01-11T07:25:46;102575.09;;;-9.20;95.19
76108;BME280;64834;52.516;10.528;2024-01-11T07:28:11;102571.47;;;-9.16;94.96
76108;BME280;64834;52.516;10.528;2024-01-11T07:30:37;102560.44;;;-9.32;95.02
76108;BME280;64834;52.516;10.528;2024-01-11T07:33:02;102547.75;;;-9.32;95.52
76108;BME280;64834;52.516;10.528;2024-01-11T07:35:29;102563.66;;;-9.33;96.21
76108;BME280;64834;52.516;10.528;2024-01-11T07:37:55;102557.47;;;-9.30;97.22
76108;BME280;64834;52.516;10.528;2024-01-11T07:40:21;102551.22;;;-9.32;97.63
76108;BME280;64834;52.516;10.528;2024-01-11T07:42:46;102543.00;;;-9.25;97.65
76108;BME280;64834;52.516;10.528;2024-01-11T07:45:12;102539.38;;;-9.21;97.70
76108;BME280;64834;52.516;10.528;2024-01-11T07:47:38;102544.84;;;-9.24;97.87
76108;BME280;64834;52.516;10.528;2024-01-11T07:50:04;102545.38;;;-9.21;97.98
76108;BME280;64834;52.516;10.528;2024-01-11T07:52:32;102547.97;;;-9.15;98.03
76108;BME280;64834;52.516;10.528;2024-01-11T07:54:57;102565.63;;;-9.21;98.09
76108;BME280;64834;52.516;10.528;2024-01-11T07:57:25;102573.56;;;-9.14;98.42
76108;BME280;64834;52.516;10.528;2024-01-11T07:59:50;102558.16;;;-9.10;98.24
76108;BME280;64834;52.516;10.528;2024-01-11T08:02:15;102553.41;;;-9.03;98.02
76108;BME280;64834;52.516;10.528;2024-01-11T08:04:41;102552.34;;;-9.14;97.93
76108;BME280;64834;52.516;10.528;2024-01-11T08:07:06;102548.38;;;-9.18;98.56
76108;BME280;64834;52.516;10.528;2024-01-11T08:09:31;102547.03;;;-9.16;98.86
76108;BME280;64834;52.516;10.528;2024-01-11T08:11:57;102557.91;;;-9.11;99.62
76108;BME280;64834;52.516;10.528;2024-01-11T08:14:22;102568.03;;;-9.11;100.00
76108;BME280;64834;52.516;10.528;2024-01-11T08:16:47;102567.38;;;-9.10;100.00
76108;BME280;64834;52.516;10.528;2024-01-11T08:19:13;102562.31;;;-9.10;100.00
76108;BME280;64834;52.516;10.528;2024-01-11T08:21:42;102545.97;;;-9.07;100.00
76108;BME280;64834;52.516;10.528;2024-01-11T08:24:07;102536.28;;;-9.09;100.00
76108;BME280;64834;52.516;10.528;2024-01-11T08:26:33;102553.56;;;-9.07;100.00
76108;BME280;64834;52.516;10.528;2024-01-11T08:28:58;102555.88;;;-9.08;100.00
76108;BME280;64834;52.516;10.528;2024-01-11T08:31:24;102566.56;;;-9.00;100.00
76108;BME280;64834;52.516;10.528;2024-01-11T08:33:49;102570.38;;;-8.86;100.00
76108;BME280;64834;52.516;10.528;2024-01-11T08:36:15;102567.91;;;-8.81;100.00
76108;BME280;64834;52.516;10.528;2024-01-11T08:38:41;102563.75;;;-8.80;100.00
76108;BME280;64834;52.516;10.528;2024-01-11T08:41:06;102559.69;;;-8.74;100.00
76108;BME280;64834;52.516;10.528;2024-01-11T08:43:32;102568.03;;;-8.70;100.00
76108;BME280;64834;52.516;10.528;2024-01-11T08:45:57;102554.59;;;-8.74;100.00
76108;BME280;64834;52.516;10.528;2024-01-11T08:48:22;102564.09;;;-8.73;100.00
76108;BME280;64834;52.516;10.528;2024-01-11T08:50:48;102575.03;;;-8.63;100.00
76108;BME280;64834;52.516;10.528;2024-01-11T08:53:13;102584.84;;;-8.49;100.00
76108;BME280;64834;52.516;10.528;2024-01-11T08:55:38;102576.84;;;-8.41;100.00
76108;BME280;64834;52.516;10.528;2024-01-11T08:58:04;102571.34;;;-8.33;100.00
76108;BME280;64834;52.516;10.528;2024-01-11T09:00:29;102576.50;;;-8.22;100.00
76108;BME280;64834;52.516;10.528;2024-01-11T09:02:55;102573.75;;;-8.23;100.00
76108;BME280;64834;52.516;10.528;2024-01-11T09:05:20;102572.13;;;-8.23;100.00
76108;BME280;64834;52.516;10.528;2024-01-11T09:07:46;102582.75;;;-8.20;100.00
76108;BME280;64834;52.516;10.528;2024-01-11T09:10:12;102572.41;;;-8.16;100.00
76108;BME280;64834;52.516;10.528;2024-01-11T09:12:37;102579.56;;;-8.13;100.00
76108;BME280;64834;52.516;10.528;2024-01-11T09:15:03;102581.22;;;-8.08;100.00
76108;BME280;64834;52.516;10.528;2024-01-11T09:17:29;102568.34;;;-8.04;100.00
76108;BME280;64834;52.516;10.528;2024-01-11T09:19:54;102561.88;;;-8.02;100.00
76108;BME280;64834;52.516;10.528;2024-01-11T09:22:19;102565.91;;;-7.87;100.00
76108;BME280;64834;52.516;10.528;2024-01-11T09:24:45;102565.13;;;-7.65;100.00
76108;BME280;64834;52.516;10.528;2024-01-11T09:27:10;102563.59;;;-7.48;100.00
76108;BME280;64834;52.516;10.528;2024-01-11T09:29:35;102550.75;;;-7.27;100.00
76108;BME280;64834;52.516;10.528;2024-01-11T09:32:01;102546.16;;;-7.13;100.00
76108;BME280;64834;52.516;10.528;2024-01-11T09:34:26;102545.03;;;-7.09;100.00
76108;BME280;64834;52.516;10.528;2024-01-11T09:36:51;102544.56;;;-7.01;100.00
76108;BME280;64834;52.516;10.528;2024-01-11T09:39:17;102535.34;;;-6.89;100.00
76108;BME280;64834;52.516;10.528;2024-01-11T09:41:57;102550.16;;;-6.87;100.00
76108;BME280;64834;52.516;10.528;2024-01-11T09:44:25;102545.31;;;-6.80;100.00
76108;BME280;64834;52.516;10.528;2024-01-11T09:46:51;102539.09;;;-6.65;100.00
76108;BME280;64834;52.516;10.528;2024-01-11T09:49:19;102542.31;;;-6.83;100.00
76108;BME280;64834;52.516;10.528;2024-01-11T09:51:47;102544.88;;;-6.71;100.00
76108;BME280;64834;52.516;10.528;2024-01-11T09:54:13;102538.63;;;-6.62;100.00
76108;BME280;64834;52.516;10.528;2024-01-11T09:56:39;102539.78;;;-6.38;100.00
76108;BME280;64834;52.516;10.528;2024-01-11T09:59:06;102538.19;;;-6.26;100.00
76108;BME280;64834;52.516;10.528;2024-01-11T10:01:32;102534.94;;;-6.31;100.00
76108;BME280;64834;52.516;10.528;2024-01-11T10:03:57;102534.69;;;-6.32;100.00
76108;BME280;64834;52.516;10.528;2024-01-11T10:06:23;102531.69;;;-6.24;100.00
76108;BME280;64834;52.516;10.528;2024-01-11T10:08:49;102530.97;;;-6.12;100.00
76108;BME280;64834;52.516;10.528;2024-01-11T10:11:14;102518.22;;;-6.17;100.00
76108;BME280;64834;52.516;10.528;2024-01-11T10:13:40;102529.34;;;-6.00;100.00
76108;BME280;64834;52.516;10.528;2024-01-11T10:16:06;102523.28;;;-5.89;100.00
76108;BME280;64834;52.516;10.528;2024-01-11T10:18:32;102536.97;;;-5.94;100.00
76108;BME280;64834;52.516;10.528;2024-01-11T10:20:58;102527.50;;;-6.01;100.00
76108;BME280;64834;52.516;10.528;2024-01-11T10:23:23;102540.22;;;-6.01;100.00
76108;BME280;64834;52.516;10.528;2024-01-11T10:25:49;102534.22;;;-6.07;100.00
76108;BME280;64834;52.516;10.528;2024-01-11T10:28:14;102530.00;;;-5.90;100.00
76108;BME280;64834;52.516;10.528;2024-01-11T10:30:40;102522.59;;;-5.94;100.00
76108;BME280;64834;52.516;10.528;2024-01-11T10:33:07;102522.78;;;-5.87;100.00
76108;BME280;64834;52.516;10.528;2024-01-11T10:35:32;102513.56;;;-5.92;100.00
76108;BME280;64834;52.516;10.528;2024-01-11T10:37:58;102514.97;;;-5.94;100.00
76108;BME280;64834;52.516;10.528;2024-01-11T10:40:25;102529.28;;;-5.83;100.00
76108;BME280;64834;52.516;10.528;2024-01-11T10:42:51;102542.69;;;-5.73;100.00
76108;BME280;64834;52.516;10.528;2024-01-11T10:45:18;102531.09;;;-5.65;100.00
76108;BME280;64834;52.516;10.528;2024-01-11T10:50:12;102540.78;;;-5.52;100.00
76108;BME280;64834;52.516;10.528;2024-01-11T10:52:42;102545.38;;;-5.49;100.00
76108;BME280;64834;52.516;10.528;2024-01-11T10:55:11;102534.28;;;-5.55;100.00
76108;BME280;64834;52.516;10.528;2024-01-11T10:57:37;102532.19;;;-5.47;100.00
76108;BME280;64834;52.516;10.528;2024-01-11T11:00:02;102533.75;;;-5.42;100.00
76108;BME280;64834;52.516;10.528;2024-01-11T11:02:29;102536.06;;;-5.32;100.00
76108;BME280;64834;52.516;10.528;2024-01-11T11:04:55;102522.63;;;-5.42;100.00
76108;BME280;64834;52.516;10.528;2024-01-11T11:07:22;102512.19;;;-5.38;100.00
76108;BME280;64834;52.516;10.528;2024-01-11T11:09:49;102493.81;;;-5.30;100.00
76108;BME280;64834;52.516;10.528;2024-01-11T11:12:17;102501.44;;;-5.24;100.00
76108;BME280;64834;52.516;10.528;2024-01-11T11:14:44;102499.88;;;-5.35;100.00
76108;BME280;64834;52.516;10.528;2024-01-11T11:17:12;102507.53;;;-5.35;100.00
76108;BME280;64834;52.516;10.528;2024-01-11T11:19:39;102499.13;;;-5.28;100.00
76108;BME280;64834;52.516;10.528;2024-01-11T11:22:05;102488.31;;;-5.38;100.00
76108;BME280;64834;52.516;10.528;2024-01-11T11:24:30;102493.81;;;-5.30;100.00
76108;BME280;64834;52.516;10.528;2024-01-11T11:26:58;102490.34;;;-5.30;100.00
76108;BME280;64834;52.516;10.528;2024-01-11T11:29:24;102481.75;;;-5.25;100.00
76108;BME280;64834;52.516;10.528;2024-01-11T11:31:49;102490.28;;;-5.19;100.00
76108;BME280;64834;52.516;10.528;2024-01-11T11:34:41;102490.25;;;-5.08;100.00
76108;BME280;64834;52.516;10.528;2024-01-11T11:37:10;102486.84;;;-5.25;100.00
76108;BME280;64834;52.516;10.528;2024-01-11T11:39:36;102502.56;;;-5.17;100.00
76108;BME280;64834;52.516;10.528;2024-01-11T11:42:01;102499.06;;;-5.11;100.00
76108;BME280;64834;52.516;10.528;2024-01-11T11:44:27;102497.41;;;-5.05;100.00
76108;BME280;64834;52.516;10.528;2024-01-11T11:46:52;102487.59;;;-4.97;100.00
76108;BME280;64834;52.516;10.528;2024-01-11T11:49:18;102476.34;;;-4.80;100.00
76108;BME280;64834;52.516;10.528;2024-01-11T11:51:43;102479.91;;;-4.91;100.00
76108;BME280;64834;52.516;10.528;2024-01-11T11:54:09;102477.09;;;-4.87;100.00
76108;BME280;64834;52.516;10.528;2024-01-11T11:56:35;102477.06;;;-4.81;100.00
76108;BME280;64834;52.516;10.528;2024-01-11T11:59:02;102467.00;;;-4.74;100.00
76108;BME280;64834;52.516;10.528;2024-01-11T12:01:28;102471.19;;;-4.75;100.00
76108;BME280;64834;52.516;10.528;2024-01-11T12:03:54;102474.25;;;-4.77;100.00
76108;BME280;64834;52.516;10.528;2024-01-11T12:06:20;102477.97;;;-4.81;100.00
76108;BME280;64834;52.516;10.528;2024-01-11T12:08:48;102493.72;;;-4.78;100.00
76108;BME280;64834;52.516;10.528;2024-01-11T12:11:20;102500.44;;;-4.73;100.00
76108;BME280;64834;52.516;10.528;2024-01-11T12:13:47;102481.56;;;-4.62;100.00
76108;BME280;64834;52.516;10.528;2024-01-11T12:16:13;102480.13;;;-4.60;100.00
76108;BME280;64834;52.516;10.528;2024-01-11T12:18:39;102479.41;;;-4.59;100.00
76108;BME280;64834;52.516;10.528;2024-01-11T12:21:05;102489.16;;;-4.56;100.00
76108;BME280;64834;52.516;10.528;2024-01-11T12:23:30;102480.41;;;-4.64;100.00
76108;BME280;64834;52.516;10.528;2024-01-11T12:25:58;102479.00;;;-4.62;100.00
76108;BME280;64834;52.516;10.528;2024-01-11T12:28:23;102467.09;;;-4.56;100.00
76108;BME280;64834;52.516;10.528;2024-01-11T12:30:49;102458.50;;;-4.56;100.00